Time;durP1;ratioP1;P1;durP2;ratioP2;P2;SDS_P1;SDS_P2;PMS_P1;PMS_P2;Temp;Humidity;BMP_temperature;BMP_pressure;BME280_temperature;BME280_humidity;BME280_pressure;Samples;Min_cycle;Max_cycle;Signal;HPM_P1;HPM_P2
2024/02/03 00:01:29;;;;;;;0.63;0.63;;;;;;;12.55;42.49;93524.66;4842184;29;20454;-79
2024/02/03 00:03:55;;;;;;;0.75;0.75;;;;;;;12.46;42.62;93511.31;4842970;29;20037;-80
2024/02/03 00:06:20;;;;;;;0.70;0.70;;;;;;;12.33;42.98;93521.66;4810564;29;20071;-80
2024/02/03 00:08:46;;;;;;;0.73;0.73;;;;;;;12.21;43.95;93519.34;4842221;29;20094;-79
2024/02/03 00:11:11;;;;;;;1.02;0.90;;;;;;;12.31;43.96;93527.16;4841674;29;20107;-79
2024/02/03 00:13:38;;;;;;;1.20;0.80;;;;;;;12.15;44.73;93513.31;4841740;29;20050;-81
2024/02/03 00:16:05;;;;;;;0.80;0.80;;;;;;;12.02;45.12;93508.66;4825207;29;20046;-79
2024/02/03 00:18:31;;;;;;;2.70;1.30;;;;;;;11.92;45.33;93506.09;4842314;29;20132;-80
2024/02/03 00:20:56;;;;;;;5.25;1.75;;;;;;;11.89;45.45;93504.81;4841971;29;20113;-79
2024/02/03 00:23:22;;;;;;;2.65;1.42;;;;;;;11.87;45.41;93509.50;4842004;29;20038;-79
2024/02/03 00:25:48;;;;;;;3.67;1.48;;;;;;;11.89;45.63;93504.81;4841790;29;20046;-80
2024/02/03 00:28:13;;;;;;;3.28;1.58;;;;;;;11.86;45.68;93497.41;4825640;29;20090;-80
2024/02/03 00:30:39;;;;;;;3.85;1.80;;;;;;;11.89;45.61;93496.94;4842171;29;20046;-80
2024/02/03 00:33:04;;;;;;;5.20;2.10;;;;;;;11.84;46.07;93497.72;4842003;29;20885;-77
2024/02/03 00:35:30;;;;;;;7.20;3.47;;;;;;;11.77;46.27;93496.41;4841686;29;20038;-81
2024/02/03 00:37:56;;;;;;;5.82;2.80;;;;;;;11.73;46.64;93493.56;4840437;29;20050;-80
2024/02/03 00:40:22;;;;;;;4.13;1.90;;;;;;;11.67;46.97;93489.38;4840937;29;20395;-80
2024/02/03 00:42:50;;;;;;;4.20;1.90;;;;;;;11.70;47.08;93494.06;4841566;29;20703;-80
2024/02/03 00:45:15;;;;;;;4.13;2.20;;;;;;;11.67;46.68;93497.25;4841569;29;20044;-80
2024/02/03 00:47:41;;;;;;;1.85;1.00;;;;;;;11.91;45.98;93488.78;4841236;29;20038;-80
2024/02/03 00:50:14;;;;;;;2.75;1.27;;;;;;;11.89;45.91;93489.06;4841236;29;20041;-80
2024/02/03 00:52:43;;;;;;;2.00;1.20;;;;;;;11.97;45.71;93485.06;4841267;29;20049;-81
2024/02/03 00:55:09;;;;;;;2.90;1.10;;;;;;;11.94;46.09;93483.00;4841750;29;20567;-79
2024/02/03 00:57:37;;;;;;;1.33;0.98;;;;;;;11.97;45.63;93487.69;4841754;29;20112;-80
2024/02/03 01:00:05;;;;;;;0.75;0.65;;;;;;;12.03;45.21;93476.13;4841303;29;20292;-78
2024/02/03 01:02:30;;;;;;;0.80;0.70;;;;;;;12.11;45.10;93480.78;4830171;29;20179;-80
2024/02/03 01:04:56;;;;;;;0.60;0.60;;;;;;;12.33;44.20;93474.38;4822877;29;20117;-80
2024/02/03 01:07:22;;;;;;;1.60;1.00;;;;;;;12.34;44.26;93466.25;4822832;29;20049;-80
2024/02/03 01:09:47;;;;;;;3.13;1.52;;;;;;;12.37;44.18;93470.94;4822733;29;20049;-80
2024/02/03 01:12:13;;;;;;;2.00;1.20;;;;;;;12.30;44.48;93470.47;4823181;29;20106;-80
2024/02/03 01:14:39;;;;;;;2.20;1.30;;;;;;;12.30;44.53;93470.47;4823294;29;20330;-80
2024/02/03 01:17:04;;;;;;;3.30;1.70;;;;;;;12.34;44.58;93470.69;4823730;29;20049;-78
2024/02/03 01:19:30;;;;;;;6.20;2.72;;;;;;;12.24;44.95;93466.31;4823250;29;20064;-79
2024/02/03 01:21:56;;;;;;;4.07;2.33;;;;;;;12.14;45.09;93461.91;4822343;29;20035;-79
2024/02/03 01:24:22;;;;;;;6.80;3.40;;;;;;;12.06;45.37;93462.47;4822321;29;20039;-80
2024/02/03 01:26:48;;;;;;;11.82;5.57;;;;;;;11.99;45.67;93469.84;4822183;29;20110;-78
2024/02/03 01:29:13;;;;;;;17.33;8.05;;;;;;;11.93;45.97;93474.31;4822271;29;20076;-80
2024/02/03 01:31:39;;;;;;;19.90;9.63;;;;;;;11.84;46.34;93468.84;4822566;29;20069;-80
2024/02/03 01:34:05;;;;;;;17.30;9.15;;;;;;;11.76;46.90;93458.91;4813881;29;20050;-79
2024/02/03 01:36:31;;;;;;;19.80;10.88;;;;;;;11.68;47.17;93459.47;4823319;29;20121;-79
2024/02/03 01:38:56;;;;;;;16.30;8.02;;;;;;;11.65;47.36;93465.25;4822608;29;20453;-79
2024/02/03 01:41:22;;;;;;;26.50;13.15;;;;;;;11.56;47.00;93466.84;4822260;29;20069;-78
2024/02/03 01:43:48;;;;;;;15.32;8.35;;;;;;;11.64;47.14;93474.16;4821887;29;20030;-79
2024/02/03 01:46:16;;;;;;;14.65;8.02;;;;;;;11.60;47.10;93467.91;4822016;29;20039;-79
2024/02/03 01:48:42;;;;;;;13.25;6.07;;;;;;;11.59;47.32;93471.56;4822197;29;20042;-79
2024/02/03 01:51:10;;;;;;;4.57;2.42;;;;;;;11.61;46.57;93466.84;4821663;29;20526;-78
2024/02/03 01:53:36;;;;;;;4.07;1.60;;;;;;;11.73;46.14;93464.69;4822193;29;20054;-79
2024/02/03 01:56:02;;;;;;;4.95;1.88;;;;;;;11.83;45.78;93464.63;4822094;29;20078;-79
2024/02/03 01:58:28;;;;;;;3.97;1.95;;;;;;;11.97;45.21;93461.47;4823622;29;20559;-79
2024/02/03 02:00:55;;;;;;;4.40;2.08;;;;;;;11.84;45.82;93468.84;4839960;29;20248;-79
2024/02/03 02:03:21;;;;;;;3.65;1.90;;;;;;;11.71;46.59;93461.56;4840072;29;20672;-78
2024/02/03 02:05:47;;;;;;;4.03;2.00;;;;;;;11.67;46.73;93460.53;4823648;29;20128;-80
2024/02/03 02:08:13;;;;;;;5.47;2.75;;;;;;;11.63;46.72;93455.03;4839670;29;20415;-79
2024/02/03 02:10:39;;;;;;;6.40;2.58;;;;;;;11.45;47.49;93459.00;4839109;29;20049;-79
2024/02/03 02:13:04;;;;;;;4.10;2.28;;;;;;;11.30;47.65;93456.44;4840252;29;20061;-80
2024/02/03 02:15:30;;;;;;;5.63;2.42;;;;;;;11.19;48.96;93457.50;4839548;29;20101;-78
2024/02/03 02:17:57;;;;;;;9.10;3.50;;;;;;;11.09;49.33;93457.53;4823939;29;20072;-79
2024/02/03 02:20:23;;;;;;;11.93;5.13;;;;;;;10.99;50.10;93451.28;4840973;29;20046;-79
2024/02/03 02:22:48;;;;;;;10.70;6.05;;;;;;;10.88;50.88;93447.09;4840950;29;20038;-79
2024/02/03 02:25:14;;;;;;;18.25;9.65;;;;;;;10.73;52.06;93447.09;4840205;29;20061;-80
2024/02/03 02:27:40;;;;;;;19.40;10.73;;;;;;;10.62;52.08;93444.47;4839937;29;20081;-78
2024/02/03 02:30:06;;;;;;;22.58;11.15;;;;;;;10.55;52.65;93443.97;4837204;29;20058;-78
2024/02/03 02:32:31;;;;;;;21.33;10.45;;;;;;;10.45;53.27;93448.41;4840044;29;20054;-79
2024/02/03 02:34:57;;;;;;;16.85;9.57;;;;;;;10.34;53.44;93437.16;4833040;29;20042;-80
2024/02/03 02:37:23;;;;;;;15.60;8.10;;;;;;;10.32;53.39;93434.03;4828218;29;20046;-80
2024/02/03 02:39:48;;;;;;;17.70;8.68;;;;;;;10.23;55.04;93436.34;4840235;29;20419;-80
2024/02/03 02:42:15;;;;;;;13.00;7.47;;;;;;;10.13;54.86;93434.50;4839889;29;20037;-78
2024/02/03 02:44:40;;;;;;;11.85;6.40;;;;;;;10.08;54.40;93429.25;4823772;29;20089;-79
2024/02/03 02:47:07;;;;;;;10.38;5.60;;;;;;;10.04;54.20;93422.94;4831829;29;20495;-79
2024/02/03 02:49:33;;;;;;;9.85;5.10;;;;;;;10.08;54.41;93425.84;4831903;29;20101;-79
2024/02/03 02:51:59;;;;;;;6.78;4.03;;;;;;;10.04;54.84;93427.41;4839690;29;20045;-79
2024/02/03 02:54:24;;;;;;;7.65;3.83;;;;;;;10.00;54.57;93429.78;4839390;29;20049;-77
2024/02/03 02:56:50;;;;;;;8.48;4.32;;;;;;;9.98;54.81;93429.22;4839588;29;20042;-79
2024/02/03 02:59:16;;;;;;;10.35;4.88;;;;;;;9.93;55.51;93430.00;4839429;29;20034;-79
2024/02/03 03:01:42;;;;;;;9.50;4.40;;;;;;;9.89;55.65;93423.72;4835838;29;20053;-78
2024/02/03 03:04:08;;;;;;;10.35;4.50;;;;;;;9.81;55.93;93424.22;4839617;29;20328;-79
2024/02/03 03:06:34;;;;;;;10.77;4.97;;;;;;;9.81;55.85;93424.22;4843816;29;20062;-79
2024/02/03 03:09:00;;;;;;;10.02;4.47;;;;;;;9.79;55.68;93424.50;4838291;29;20095;-79
2024/02/03 03:11:25;;;;;;;8.40;4.30;;;;;;;9.71;55.86;93409.28;4824262;29;20070;-79
2024/02/03 03:13:51;;;;;;;9.70;4.68;;;;;;;9.75;55.64;93414.81;4837404;29;20050;-77
2024/02/03 03:16:17;;;;;;;8.90;4.90;;;;;;;9.75;55.56;93420.81;4825730;29;20073;-80
2024/02/03 03:18:42;;;;;;;11.38;5.72;;;;;;;9.75;56.03;93417.41;4814239;29;20042;-77
2024/02/03 03:21:08;;;;;;;10.13;5.85;;;;;;;9.70;55.71;93407.72;4832057;29;20038;-79
2024/02/03 03:23:34;;;;;;;14.85;7.50;;;;;;;9.70;55.91;93418.16;4836458;29;20034;-79
2024/02/03 03:26:00;;;;;;;14.52;8.05;;;;;;;9.70;55.69;93417.38;4836565;29;20042;-79
2024/02/03 03:28:26;;;;;;;14.65;7.30;;;;;;;9.66;56.15;93416.31;4843034;29;20034;-79
2024/02/03 03:30:52;;;;;;;14.25;5.95;;;;;;;9.61;56.63;93424.94;4842613;29;20412;-78
2024/02/03 03:33:17;;;;;;;14.23;6.93;;;;;;;9.65;56.05;93422.59;4842544;29;20030;-79
2024/02/03 03:35:43;;;;;;;13.43;7.22;;;;;;;9.62;55.76;93430.97;4825476;29;20516;-79
2024/02/03 03:38:10;;;;;;;14.13;7.45;;;;;;;9.55;57.30;93434.59;4825555;29;20141;-79
2024/02/03 03:40:37;;;;;;;13.77;8.27;;;;;;;9.52;56.92;93431.72;4841973;29;20037;-78
2024/02/03 03:43:07;;;;;;;18.27;8.98;;;;;;;9.46;57.52;93432.75;4827303;29;20058;-78
2024/02/03 03:45:32;;;;;;;7.88;4.30;;;;;;;9.52;56.83;93426.47;4834998;29;20542;-79
2024/02/03 03:47:58;;;;;;;11.88;6.55;;;;;;;9.53;57.12;93428.06;4818754;29;20066;-79
2024/02/03 03:50:25;;;;;;;8.90;4.20;;;;;;;9.61;56.70;93426.78;4842218;29;20499;-80
2024/02/03 03:52:50;;;;;;;12.02;5.47;;;;;;;9.62;56.77;93431.75;4819083;29;20525;-79
2024/02/03 03:55:16;;;;;;;10.38;5.38;;;;;;;9.56;56.92;93427.53;4840944;29;20084;-79
2024/02/03 03:57:42;;;;;;;12.57;5.35;;;;;;;9.53;56.25;93430.69;4820335;29;20030;-79
2024/02/03 04:00:11;;;;;;;11.00;5.88;;;;;;;9.45;57.66;93426.72;4838614;29;20049;-79
2024/02/03 04:02:39;;;;;;;14.75;5.95;;;;;;;9.44;57.41;93424.38;4837661;29;20088;-77
2024/02/03 04:05:08;;;;;;;11.60;5.70;;;;;;;9.36;58.48;93429.03;4839137;29;20063;-79
2024/02/03 04:07:34;;;;;;;11.25;5.70;;;;;;;9.29;58.11;93431.09;4842637;29;20136;-79
2024/02/03 04:09:59;;;;;;;10.65;5.50;;;;;;;9.25;58.64;93427.41;4840061;29;20141;-78
2024/02/03 04:12:25;;;;;;;11.50;5.50;;;;;;;9.18;58.90;93426.84;4824581;29;20480;-79
2024/02/03 04:14:51;;;;;;;10.80;5.35;;;;;;;9.11;59.82;93423.69;4840390;29;20042;-79
2024/02/03 04:17:17;;;;;;;12.20;5.25;;;;;;;9.04;59.69;93420.53;4841230;29;20042;-78
2024/02/03 04:19:43;;;;;;;12.23;6.13;;;;;;;9.04;59.73;93428.34;4841114;29;20117;-79
2024/02/03 04:22:12;;;;;;;8.68;4.40;;;;;;;9.09;58.57;93429.16;4841090;29;20065;-79
2024/02/03 04:24:38;;;;;;;11.15;6.40;;;;;;;9.07;59.61;93425.22;4825619;29;20079;-79
2024/02/03 04:27:04;;;;;;;9.25;4.57;;;;;;;9.09;58.84;93431.00;4841598;29;20033;-80
2024/02/03 04:29:30;;;;;;;13.57;6.55;;;;;;;9.08;58.73;93427.59;4834344;29;20499;-80
2024/02/03 04:31:55;;;;;;;8.55;4.22;;;;;;;9.13;58.16;93429.44;4841586;29;20121;-78
2024/02/03 04:34:21;;;;;;;12.00;5.60;;;;;;;9.11;59.30;93427.09;4840659;29;20523;-80
2024/02/03 04:36:47;;;;;;;15.55;6.72;;;;;;;9.05;59.62;93428.13;4841382;29;20388;-79
2024/02/03 04:39:13;;;;;;;15.85;7.50;;;;;;;8.98;58.98;93421.53;4841232;29;20061;-77
2024/02/03 04:41:39;;;;;;;11.82;5.15;;;;;;;8.95;59.84;93407.94;4841571;29;20030;-78
2024/02/03 04:44:05;;;;;;;7.68;4.70;;;;;;;8.88;60.13;93407.38;4841330;29;20041;-79
2024/02/03 04:46:30;;;;;;;12.30;6.30;;;;;;;8.85;60.55;93407.09;4822940;29;20038;-79
2024/02/03 04:48:56;;;;;;;14.98;7.97;;;;;;;8.79;60.36;93413.34;4834037;29;20120;-79
2024/02/03 04:51:21;;;;;;;15.70;8.88;;;;;;;8.74;59.66;93416.69;4841385;29;20402;-79
2024/02/03 04:53:47;;;;;;;19.05;8.65;;;;;;;8.65;59.71;93402.56;4828117;29;20049;-79
2024/02/03 04:56:13;;;;;;;17.90;9.10;;;;;;;8.69;60.62;93408.81;4834308;29;20523;-79
2024/02/03 04:58:38;;;;;;;15.68;8.40;;;;;;;8.65;60.78;93405.16;4833085;29;20090;-78
2024/02/03 05:01:04;;;;;;;15.77;8.10;;;;;;;8.61;60.90;93399.66;4840669;29;20039;-79
2024/02/03 05:03:35;;;;;;;13.93;6.10;;;;;;;8.62;60.99;93403.03;4825069;29;20026;-79
2024/02/03 05:06:05;;;;;;;9.07;4.95;;;;;;;8.62;61.03;93401.19;4833055;29;20133;-79
2024/02/03 05:08:31;;;;;;;10.55;4.18;;;;;;;8.66;60.88;93399.66;4832818;29;20122;-78
2024/02/03 05:10:57;;;;;;;9.68;4.70;;;;;;;8.59;60.98;93393.09;4840998;29;20144;-79
2024/02/03 05:13:23;;;;;;;8.57;4.25;;;;;;;8.58;60.49;93391.53;4833559;29;20046;-79
2024/02/03 05:15:49;;;;;;;7.03;3.22;;;;;;;8.60;60.42;93398.09;4840155;29;20041;-79
2024/02/03 05:18:14;;;;;;;7.93;3.88;;;;;;;8.60;60.43;93390.25;4840620;29;20046;-79
2024/02/03 05:20:40;;;;;;;7.10;3.03;;;;;;;8.59;60.46;93393.88;4832734;29;20037;-80
2024/02/03 05:23:05;;;;;;;5.05;2.60;;;;;;;8.62;60.66;93388.16;4834262;29;20062;-79
2024/02/03 05:25:31;;;;;;;5.13;2.65;;;;;;;8.64;60.65;93399.13;4837656;29;20038;-79
2024/02/03 05:27:57;;;;;;;8.30;3.13;;;;;;;8.63;60.46;93402.00;4837101;29;20038;-79
2024/02/03 05:30:22;;;;;;;7.00;2.80;;;;;;;8.60;60.36;93392.88;4838609;29;20124;-78
2024/02/03 05:32:48;;;;;;;4.75;2.25;;;;;;;8.63;60.02;93404.63;4812616;29;20558;-79
2024/02/03 05:35:13;;;;;;;7.47;3.45;;;;;;;8.64;60.02;93398.34;4840793;29;20041;-77
2024/02/03 05:37:39;;;;;;;5.07;2.50;;;;;;;8.65;59.90;93400.72;4840751;29;20030;-78
2024/02/03 05:40:05;;;;;;;5.68;2.83;;;;;;;8.66;59.52;93401.50;4824042;29;20042;-79
2024/02/03 05:42:31;;;;;;;5.45;2.63;;;;;;;8.68;59.34;93399.44;4837338;29;20503;-79
2024/02/03 05:44:58;;;;;;;7.28;3.60;;;;;;;8.70;59.23;93411.19;4836359;29;20045;-78
2024/02/03 05:47:23;;;;;;;7.93;4.22;;;;;;;8.73;59.47;93412.50;4827123;29;20511;-78
2024/02/03 05:49:49;;;;;;;8.15;3.95;;;;;;;8.74;59.67;93406.25;4840709;29;20125;-79
2024/02/03 05:52:15;;;;;;;8.38;3.47;;;;;;;8.76;59.21;93414.63;4840244;29;20045;-79
2024/02/03 05:54:40;;;;;;;7.05;3.47;;;;;;;8.77;59.23;93410.97;4840604;29;20512;-77
2024/02/03 05:57:10;;;;;;;6.03;3.13;;;;;;;8.80;58.91;93405.22;4840817;29;20134;-79
2024/02/03 05:59:35;;;;;;;6.85;3.35;;;;;;;8.86;58.87;93406.84;4836046;29;20041;-78
2024/02/03 06:02:01;;;;;;;12.25;5.93;;;;;;;8.89;58.24;93408.16;4855090;29;20411;-79
2024/02/03 06:04:26;;;;;;;15.90;8.25;;;;;;;8.92;57.48;93405.84;4840545;29;20057;-79
2024/02/03 06:06:52;;;;;;;18.92;9.50;;;;;;;8.94;57.37;93411.59;4823574;29;20049;-79
2024/02/03 06:09:18;;;;;;;19.60;10.65;;;;;;;8.95;57.08;93402.72;4838585;29;20038;-79
2024/02/03 06:11:43;;;;;;;19.33;9.98;;;;;;;8.85;57.24;93397.44;4821438;29;20062;-77
2024/02/03 06:14:09;;;;;;;20.05;9.65;;;;;;;8.92;57.20;93405.84;4835720;29;20038;-79
2024/02/03 06:16:34;;;;;;;17.27;9.20;;;;;;;8.92;57.13;93411.06;4839806;29;20046;-78
2024/02/03 06:19:00;;;;;;;15.88;7.63;;;;;;;9.00;56.66;93414.22;4840483;29;20040;-79
2024/02/03 06:21:27;;;;;;;17.88;8.77;;;;;;;9.09;55.48;93403.03;4811611;29;20081;-79
2024/02/03 06:23:52;;;;;;;25.20;12.32;;;;;;;9.17;54.19;93409.63;4833663;29;20560;-79
2024/02/03 06:26:18;;;;;;;25.80;12.85;;;;;;;9.19;54.54;93415.38;4822045;29;20070;-79
2024/02/03 06:28:44;;;;;;;20.52;10.70;;;;;;;9.17;55.12;93415.63;4821342;29;20319;-79
2024/02/03 06:31:09;;;;;;;18.63;9.23;;;;;;;9.13;56.24;93419.00;4829731;29;20058;-79
2024/02/03 06:33:35;;;;;;;18.60;8.95;;;;;;;9.09;56.18;93412.72;4839418;29;20052;-79
2024/02/03 06:36:00;;;;;;;19.02;8.90;;;;;;;9.09;55.85;93421.31;4841603;29;20415;-77
2024/02/03 06:38:27;;;;;;;20.10;9.10;;;;;;;9.06;56.17;93423.69;4843884;29;20533;-79
2024/02/03 06:40:53;;;;;;;20.38;9.38;;;;;;;9.05;56.27;93427.31;4830343;29;20046;-79
2024/02/03 06:43:19;;;;;;;20.55;9.07;;;;;;;9.11;54.87;93423.69;4827077;29;20030;-79
2024/02/03 06:45:44;;;;;;;19.13;9.57;;;;;;;9.18;54.65;93417.19;4843611;29;20064;-78
2024/02/03 06:48:10;;;;;;;20.10;9.68;;;;;;;9.20;54.90;93403.09;4843414;29;20040;-79
2024/02/03 06:50:37;;;;;;;20.13;9.95;;;;;;;9.38;53.22;93416.50;4841940;29;20044;-77
2024/02/03 06:53:03;;;;;;;20.25;10.48;;;;;;;9.49;53.34;93424.38;4842202;29;20069;-77
2024/02/03 06:55:28;;;;;;;28.73;11.57;;;;;;;9.56;52.90;93417.09;4841851;29;20458;-77
2024/02/03 06:57:54;;;;;;;27.10;14.85;;;;;;;9.64;52.55;93421.81;4842709;29;20495;-79
2024/02/03 07:00:21;;;;;;;33.60;15.93;;;;;;;9.80;51.87;93426.06;4835702;29;20061;-79
2024/02/03 07:02:46;;;;;;;32.17;16.23;;;;;;;10.50;49.58;93422.25;4840682;29;20105;-78
2024/02/03 07:05:12;;;;;;;29.67;15.02;;;;;;;11.62;46.72;93418.59;4842472;29;20034;-79
2024/02/03 07:07:37;;;;;;;34.83;16.88;;;;;;;12.75;43.90;93431.03;4842431;29;20085;-78
2024/02/03 07:10:03;;;;;;;30.48;17.00;;;;;;;13.85;40.23;93424.09;4816375;29;20056;-80
2024/02/03 07:12:29;;;;;;;32.80;14.95;;;;;;;14.85;38.02;93421.31;4840744;29;20049;-81
2024/02/03 07:14:54;;;;;;;28.35;16.27;;;;;;;15.83;36.70;93428.25;4840024;29;20200;-79
2024/02/03 07:17:21;;;;;;;29.02;15.80;;;;;;;16.65;34.82;93421.19;4823879;29;20042;-80
2024/02/03 07:19:46;;;;;;;26.90;14.35;;;;;;;17.41;33.54;93423.03;4841957;29;20045;-79
2024/02/03 07:22:12;;;;;;;20.60;11.85;;;;;;;18.20;32.34;93422.16;4842676;29;20037;-80
2024/02/03 07:24:38;;;;;;;21.95;11.73;;;;;;;18.78;31.11;93429.97;4843624;29;20038;-80
2024/02/03 07:27:04;;;;;;;21.30;10.95;;;;;;;18.33;30.58;93417.81;4839197;29;20499;-80
2024/02/03 07:29:30;;;;;;;18.25;10.35;;;;;;;18.31;31.16;93422.63;4838169;29;20265;-79
2024/02/03 07:32:01;;;;;;;17.60;9.20;;;;;;;19.40;29.08;93428.75;4843087;29;20042;-80
2024/02/03 07:34:28;;;;;;;6.60;3.90;;;;;;;19.76;29.11;93431.72;4829962;29;20034;-80
2024/02/03 07:36:53;;;;;;;7.30;4.40;;;;;;;20.55;27.99;93426.69;4823934;29;20294;-81
2024/02/03 07:39:19;;;;;;;6.40;3.33;;;;;;;20.78;28.05;93418.41;4841057;29;20041;-80
2024/02/03 07:41:45;;;;;;;6.25;3.42;;;;;;;21.46;28.19;93431.38;4793847;29;20058;-79
2024/02/03 07:44:10;;;;;;;7.32;3.17;;;;;;;21.92;26.93;93429.41;4844691;29;20034;-79
2024/02/03 07:46:39;;;;;;;8.27;4.10;;;;;;;22.56;26.55;93429.75;4823608;29;20037;-81
2024/02/03 07:49:05;;;;;;;6.40;3.70;;;;;;;23.34;25.78;93428.47;4824384;29;20170;-79
2024/02/03 07:51:31;;;;;;;10.35;6.63;;;;;;;23.86;25.86;93435.47;4825102;29;21084;-83
2024/02/03 07:53:57;;;;;;;16.52;9.57;;;;;;;24.47;23.75;93426.16;4804553;29;20035;-81
2024/02/03 07:56:22;;;;;;;13.60;8.32;;;;;;;24.84;22.71;93425.75;4834468;29;20053;-81
2024/02/03 07:58:49;;;;;;;12.05;7.88;;;;;;;25.49;22.58;93424.28;4841437;29;20124;-81
2024/02/03 08:01:15;;;;;;;14.07;7.57;;;;;;;25.72;21.50;93432.34;4836944;29;20070;-81
2024/02/03 08:03:40;;;;;;;11.95;6.75;;;;;;;26.29;21.04;93429.75;4833886;29;20038;-83
2024/02/03 08:06:07;;;;;;;5.93;3.33;;;;;;;26.69;20.78;93434.53;4807373;29;20046;-80
2024/02/03 08:08:33;;;;;;;5.25;2.55;;;;;;;25.58;21.70;93427.50;4825599;29;20475;-80
2024/02/03 08:10:58;;;;;;;3.35;1.90;;;;;;;26.05;21.07;93426.38;4822283;29;20057;-84
2024/02/03 08:13:24;;;;;;;2.80;1.70;;;;;;;26.01;20.61;93422.06;4823685;29;20133;-81
2024/02/03 08:15:49;;;;;;;3.05;1.80;;;;;;;26.55;19.67;93431.69;4841783;29;20085;-80
2024/02/03 08:18:15;;;;;;;4.60;2.38;;;;;;;25.28;20.85;93430.03;4820982;29;20517;-81
2024/02/03 08:20:41;;;;;;;3.83;2.28;;;;;;;26.70;20.52;93430.72;4835457;29;20145;-81
2024/02/03 08:23:06;;;;;;;3.50;2.30;;;;;;;26.11;21.12;93434.88;4818671;29;20041;-80
2024/02/03 08:25:32;;;;;;;4.72;2.60;;;;;;;26.99;20.28;93421.06;4836536;29;20039;-81
2024/02/03 08:27:57;;;;;;;3.90;2.25;;;;;;;27.13;19.93;93423.16;4839710;29;20052;-83
2024/02/03 08:30:23;;;;;;;4.20;2.15;;;;;;;26.50;20.01;93421.22;4839615;29;20034;-81
2024/02/03 08:32:48;;;;;;;3.78;2.20;;;;;;;26.30;20.02;93433.97;4818891;29;20175;-79
2024/02/03 08:35:14;;;;;;;4.00;2.30;;;;;;;28.34;18.91;93430.75;4840952;29;20044;-81
2024/02/03 08:37:40;;;;;;;3.58;2.00;;;;;;;27.45;19.63;93425.44;4835228;29;20034;-80
2024/02/03 08:40:06;;;;;;;3.60;2.10;;;;;;;27.91;19.00;93417.00;4838251;29;20034;-79
2024/02/03 08:42:32;;;;;;;3.75;2.17;;;;;;;27.55;20.22;93418.59;4820527;29;20039;-80
2024/02/03 08:44:58;;;;;;;3.80;2.05;;;;;;;27.31;20.38;93425.28;4831945;29;20042;-81
2024/02/03 08:47:24;;;;;;;4.38;2.17;;;;;;;26.13;21.45;93419.19;4806351;29;20038;-80
2024/02/03 08:49:53;;;;;;;4.00;2.15;;;;;;;25.35;21.99;93419.44;4819528;29;20082;-79
2024/02/03 08:52:19;;;;;;;3.92;2.10;;;;;;;25.01;21.87;93418.41;4824695;29;20430;-80
2024/02/03 08:54:45;;;;;;;3.97;2.17;;;;;;;23.61;24.02;93426.06;4841097;29;20038;-80
2024/02/03 08:57:11;;;;;;;3.72;2.20;;;;;;;23.73;23.99;93419.84;4835995;29;20503;-79
2024/02/03 08:59:37;;;;;;;3.92;2.00;;;;;;;23.36;23.82;93418.19;4840905;29;20053;-79
2024/02/03 09:02:03;;;;;;;4.10;2.00;;;;;;;22.62;24.32;93421.19;4840244;29;20042;-79
2024/02/03 09:04:28;;;;;;;5.93;2.20;;;;;;;22.21;25.65;93422.25;4818982;29;20041;-77
2024/02/03 09:06:54;;;;;;;3.53;2.00;;;;;;;21.38;26.00;93426.91;4833834;29;20069;-80
2024/02/03 09:09:19;;;;;;;3.50;1.90;;;;;;;21.79;25.63;93428.59;4817197;29;20372;-78
2024/02/03 09:11:45;;;;;;;3.65;1.90;;;;;;;21.98;25.63;93420.06;4833000;29;20061;-80
2024/02/03 09:14:11;;;;;;;3.22;1.80;;;;;;;22.40;24.36;93427.03;4836012;29;20318;-79
2024/02/03 09:16:36;;;;;;;3.17;1.65;;;;;;;22.64;25.00;93424.28;4834508;29;20053;-79
2024/02/03 09:19:02;;;;;;;3.90;1.90;;;;;;;21.85;25.26;93428.41;4833569;29;20064;-79
2024/02/03 09:21:27;;;;;;;3.50;1.67;;;;;;;21.95;25.95;93427.94;4831013;29;20050;-78
2024/02/03 09:23:53;;;;;;;2.15;1.30;;;;;;;21.95;25.93;93423.41;4830758;29;20402;-78
2024/02/03 09:26:19;;;;;;;3.60;1.80;;;;;;;21.72;26.46;93425.72;4836842;29;20487;-80
2024/02/03 09:28:44;;;;;;;2.80;1.58;;;;;;;21.83;26.55;93432.16;4822546;29;20042;-80
2024/02/03 09:31:17;;;;;;;2.72;1.55;;;;;;;20.33;28.33;93430.47;4833507;29;20049;-79
2024/02/03 09:33:43;;;;;;;2.22;1.40;;;;;;;21.59;27.12;93427.63;4837191;29;20517;-79
2024/02/03 09:36:08;;;;;;;3.35;1.50;;;;;;;22.52;25.92;93419.00;4838237;29;20038;-79
2024/02/03 09:38:34;;;;;;;3.65;1.80;;;;;;;22.60;25.13;93426.06;4834404;29;20037;-82
2024/02/03 09:41:00;;;;;;;3.08;1.38;;;;;;;21.13;26.89;93429.50;4836569;29;20045;-78
2024/02/03 09:43:26;;;;;;;3.80;1.60;;;;;;;21.25;27.38;93425.31;4825029;29;20103;-80
2024/02/03 09:45:52;;;;;;;4.90;1.33;;;;;;;20.95;27.51;93433.44;4840115;29;20040;-80
2024/02/03 09:48:17;;;;;;;2.78;1.52;;;;;;;20.84;27.35;93429.63;4840055;29;20033;-78
2024/02/03 09:50:43;;;;;;;2.17;1.38;;;;;;;20.76;27.53;93434.72;4820213;29;20030;-78
2024/02/03 09:53:10;;;;;;;3.03;1.60;;;;;;;20.45;27.69;93434.31;4836080;29;20057;-79
2024/02/03 09:55:36;;;;;;;4.72;1.75;;;;;;;21.64;26.32;93434.63;4838035;29;20035;-79
2024/02/03 09:58:03;;;;;;;3.03;1.60;;;;;;;21.89;25.68;93424.75;4833498;29;20410;-81
2024/02/03 10:00:28;;;;;;;3.17;1.65;;;;;;;22.03;26.16;93430.50;4816336;29;20026;-76
2024/02/03 10:02:54;;;;;;;2.95;1.70;;;;;;;21.52;27.10;93422.03;4838807;29;20044;-79
2024/02/03 10:05:28;;;;;;;3.42;1.85;;;;;;;21.71;26.83;93424.19;4820849;29;20037;-80
2024/02/03 10:08:05;;;;;;;4.75;1.75;;;;;;;21.40;28.17;93414.03;4823247;29;20070;-79
2024/02/03 10:10:35;;;;;;;4.38;1.80;;;;;;;20.75;29.94;93411.09;4837776;29;20046;-78
2024/02/03 10:13:15;;;;;;;3.65;1.73;;;;;;;21.46;27.85;93417.25;4834274;29;20040;-78
2024/02/03 10:15:41;;;;;;;2.70;1.50;;;;;;;21.34;26.94;93416.13;4835746;29;20034;-82
2024/02/03 10:18:10;;;;;;;3.30;1.77;;;;;;;21.27;26.08;93410.56;4833963;29;20065;-84
2024/02/03 10:20:36;;;;;;;3.00;1.60;;;;;;;21.35;26.55;93416.91;4810627;29;20040;-78
2024/02/03 10:23:02;;;;;;;4.70;1.70;;;;;;;21.57;27.56;93413.06;4837262;29;20033;-81
2024/02/03 10:25:29;;;;;;;4.00;1.65;;;;;;;21.23;27.26;93414.22;4836584;29;20422;-80
2024/02/03 10:28:03;;;;;;;3.53;1.80;;;;;;;21.06;29.05;93410.63;4836369;29;20046;-78
2024/02/03 10:30:34;;;;;;;3.58;1.80;;;;;;;20.79;28.62;93406.66;4833998;29;20114;-79
2024/02/03 10:33:01;;;;;;;3.78;1.77;;;;;;;20.86;26.92;93409.56;4841456;29;20038;-82
2024/02/03 10:35:28;;;;;;;3.55;1.77;;;;;;;21.03;26.49;93405.19;4833023;29;20080;-80
2024/02/03 10:37:55;;;;;;;2.90;1.50;;;;;;;21.23;28.11;93409.66;4816296;29;20053;-79
2024/02/03 10:40:25;;;;;;;3.90;1.92;;;;;;;20.84;27.25;93398.47;4813953;29;20161;-79
2024/02/03 10:42:53;;;;;;;3.60;1.70;;;;;;;20.90;27.60;93396.41;4830976;29;20045;-80
2024/02/03 10:45:22;;;;;;;7.95;1.98;;;;;;;20.70;29.21;93392.66;4829640;29;20034;-79
2024/02/03 10:47:50;;;;;;;4.25;1.80;;;;;;;20.44;28.36;93385.66;4839150;29;20099;-83
2024/02/03 10:50:17;;;;;;;4.05;1.90;;;;;;;20.63;28.69;93387.09;4831506;29;20710;-82
2024/02/03 10:52:46;;;;;;;2.88;1.67;;;;;;;20.68;28.57;93381.56;4831761;29;20054;-84
2024/02/03 10:55:15;;;;;;;4.05;1.80;;;;;;;20.73;27.11;93374.16;4831170;29;20026;-84
2024/02/03 10:57:45;;;;;;;3.00;1.70;;;;;;;20.59;30.10;93381.66;4833057;29;20030;-84
2024/02/03 11:00:15;;;;;;;3.53;1.73;;;;;;;20.50;29.62;93372.94;4837793;29;20037;-80
2024/02/03 11:02:50;;;;;;;3.38;1.95;;;;;;;20.39;31.43;93377.88;4834216;29;20030;-79
2024/02/03 11:05:15;;;;;;;3.05;1.83;;;;;;;20.51;30.91;93375.28;4826603;29;20364;-81
2024/02/03 11:07:45;;;;;;;3.08;1.65;;;;;;;20.81;30.20;93367.22;4808084;29;20038;-83
2024/02/03 11:10:14;;;;;;;3.17;1.75;;;;;;;21.10;27.53;93358.28;4827447;29;20692;-81
2024/02/03 11:12:39;;;;;;;3.13;1.50;;;;;;;21.07;28.51;93363.50;4836413;29;20518;-83
2024/02/03 11:15:10;;;;;;;6.40;1.60;;;;;;;20.47;29.30;93355.00;4819138;29;20344;-81
2024/02/03 11:17:36;;;;;;;3.80;1.60;;;;;;;21.21;29.39;93345.34;4830963;29;20132;-79
2024/02/03 11:20:06;;;;;;;3.95;1.70;;;;;;;21.35;25.99;93355.66;4811449;29;20090;-82
2024/02/03 11:22:32;;;;;;;3.17;1.65;;;;;;;21.70;27.86;93342.69;4828100;29;20061;-81
2024/02/03 11:24:58;;;;;;;3.60;1.60;;;;;;;21.46;27.87;93348.81;4826489;29;20030;-80
2024/02/03 11:27:24;;;;;;;3.70;1.55;;;;;;;21.61;27.06;93344.69;4831878;29;20094;-81